Weather at Malmö Sturup Airport

Public forecast

Using degrees Celsius for public forecast. Weather courtesy of forecast.io.

Current aviation weather report (METAR) for Malmö Sturup Airport

2024/05/30 16:20 (retrieved 28 minutes ago)

ESMS 301620Z 10009KT CAVOK 19/13 Q1007

Aviation forecast (TAF) for Malmö Sturup Airport

2024/05/30 15:41 (retrieved 1 hour ago)

TAF ESMS 301421Z 3015/3115 14007KT 9999 SCT030 TEMPO 3015/3024 SCT040CB TEMPO 3100/3109 4000 SHRA BR BKN010 BKN040CB BECMG 3109/3111 08010KT TEMPO 3109/3115 SCT030CB